Main page
METAR-TAF:

METAR-TAF

Airports :

Ninoy Aquino International Airport

Manila, Philippines

latitude: 14-31N, longitude: 121-00E, elevation: 14 m

Current weather observation

The report was made 28 minutes ago, at 05:00 UTC
Wind 12 kt from the East/Southeast
Temperature 36°C
Humidity 45%
Pressure 1009 hPa
Visibility 10 km or more
Few clouds at a height of 2500 ft

METAR: RPLL 240500Z 12012KT 9999 FEW025 36/22 Q1009 NOSIG RMK A2980

Time: 13:28 (05:28 UTC)

Forecast

The report was made 6 hours and 28 minutes ago, at 23:00 UTC
Forecast valid from 24 at 00 UTC to 25 at 06 UTC
Wind 8 kt from the East/Southeast
Visibility 10 km or more
Few clouds at a height of 2500 ft
Temporary
from 24 at 00 UTC to 24 at 06 UTC
Wind 15 kt from the Southeast
Scattered clouds at a height of 2300 ft
Temporary
from 24 at 06 UTC to 24 at 12 UTC
Wind 14 kt from the East

TAF: RPLL 232300Z 2400/2506 11008KT 9999 FEW025 TX35/2406Z TN27/2421Z TEMPO 2400/2406 13015KT SCT023 TEMPO 2406/2412 09014KT

Weather observations and forecasts of more than 4000 airports (METAR and TAF reports).

The available stations are represented by yellow and red dots on the map.

Hover mouse over dot to see the name of the station.

Then click to see weather observations and forecasts.

To change the map : click on the green buttons with a black cross to zoom in, on the green button with a dash to zoom out, or on the green arrows for adjacent maps.


METAR-TAF: